sensor_id;sensor_type;location;lat;lon;timestamp;P1;durP1;ratioP1;P2;durP2;ratioP2
36423;SDS011;22458;45.328;9.514;2022-10-31T00:00:06;5.65;;;3.97;;
36423;SDS011;22458;45.328;9.514;2022-10-31T00:02:36;3.97;;;3.58;;
36423;SDS011;22458;45.328;9.514;2022-10-31T00:05:02;5.95;;;4.30;;
36423;SDS011;22458;45.328;9.514;2022-10-31T00:07:28;4.70;;;3.92;;
36423;SDS011;22458;45.328;9.514;2022-10-31T00:09:53;4.55;;;4.05;;
36423;SDS011;22458;45.328;9.514;2022-10-31T00:12:19;5.13;;;3.95;;
36423;SDS011;22458;45.328;9.514;2022-10-31T00:14:45;4.03;;;3.47;;
36423;SDS011;22458;45.328;9.514;2022-10-31T00:17:10;5.13;;;4.40;;
36423;SDS011;22458;45.328;9.514;2022-10-31T00:19:36;4.40;;;3.90;;
36423;SDS011;22458;45.328;9.514;2022-10-31T00:22:02;6.28;;;4.18;;
36423;SDS011;22458;45.328;9.514;2022-10-31T00:24:27;4.25;;;3.83;;
36423;SDS011;22458;45.328;9.514;2022-10-31T00:26:53;4.72;;;3.78;;
36423;SDS011;22458;45.328;9.514;2022-10-31T00:29:20;5.00;;;4.30;;
36423;SDS011;22458;45.328;9.514;2022-10-31T00:31:46;4.82;;;3.92;;
36423;SDS011;22458;45.328;9.514;2022-10-31T00:34:11;5.03;;;4.53;;
36423;SDS011;22458;45.328;9.514;2022-10-31T00:36:37;4.55;;;4.07;;
36423;SDS011;22458;45.328;9.514;2022-10-31T00:39:03;3.97;;;3.55;;
36423;SDS011;22458;45.328;9.514;2022-10-31T00:41:29;5.00;;;4.03;;
36423;SDS011;22458;45.328;9.514;2022-10-31T00:43:54;6.35;;;4.40;;
36423;SDS011;22458;45.328;9.514;2022-10-31T00:46:20;4.45;;;3.95;;
36423;SDS011;22458;45.328;9.514;2022-10-31T00:48:49;5.47;;;4.03;;
36423;SDS011;22458;45.328;9.514;2022-10-31T00:51:14;5.55;;;4.88;;
36423;SDS011;22458;45.328;9.514;2022-10-31T00:53:40;11.40;;;5.95;;
36423;SDS011;22458;45.328;9.514;2022-10-31T00:56:06;5.72;;;4.55;;
36423;SDS011;22458;45.328;9.514;2022-10-31T00:58:32;5.15;;;4.65;;
36423;SDS011;22458;45.328;9.514;2022-10-31T01:00:58;4.95;;;4.55;;
36423;SDS011;22458;45.328;9.514;2022-10-31T01:03:24;4.95;;;3.90;;
36423;SDS011;22458;45.328;9.514;2022-10-31T01:08:31;4.65;;;4.10;;
36423;SDS011;22458;45.328;9.514;2022-10-31T01:11:05;4.68;;;4.28;;
36423;SDS011;22458;45.328;9.514;2022-10-31T01:13:39;4.43;;;3.22;;
36423;SDS011;22458;45.328;9.514;2022-10-31T01:16:06;4.25;;;3.85;;
36423;SDS011;22458;45.328;9.514;2022-10-31T01:18:33;3.30;;;3.00;;
36423;SDS011;22458;45.328;9.514;2022-10-31T01:21:10;4.43;;;3.05;;
36423;SDS011;22458;45.328;9.514;2022-10-31T01:23:37;3.97;;;3.58;;
36423;SDS011;22458;45.328;9.514;2022-10-31T01:26:15;3.35;;;3.05;;
36423;SDS011;22458;45.328;9.514;2022-10-31T01:28:45;3.42;;;3.13;;
36423;SDS011;22458;45.328;9.514;2022-10-31T01:31:13;4.85;;;3.63;;
36423;SDS011;22458;45.328;9.514;2022-10-31T01:33:40;4.32;;;3.63;;
36423;SDS011;22458;45.328;9.514;2022-10-31T01:38:55;7.43;;;4.82;;
36423;SDS011;22458;45.328;9.514;2022-10-31T01:41:23;6.88;;;4.43;;
36423;SDS011;22458;45.328;9.514;2022-10-31T01:43:56;4.35;;;3.75;;
36423;SDS011;22458;45.328;9.514;2022-10-31T01:46:36;5.75;;;4.75;;
36423;SDS011;22458;45.328;9.514;2022-10-31T01:49:09;5.07;;;4.22;;
36423;SDS011;22458;45.328;9.514;2022-10-31T01:51:41;5.22;;;4.22;;
36423;SDS011;22458;45.328;9.514;2022-10-31T01:54:30;5.20;;;3.75;;
36423;SDS011;22458;45.328;9.514;2022-10-31T01:57:01;4.55;;;3.97;;
36423;SDS011;22458;45.328;9.514;2022-10-31T01:59:30;4.40;;;3.90;;
36423;SDS011;22458;45.328;9.514;2022-10-31T02:02:00;4.40;;;4.00;;
36423;SDS011;22458;45.328;9.514;2022-10-31T02:04:26;5.53;;;4.85;;
36423;SDS011;22458;45.328;9.514;2022-10-31T02:07:01;5.50;;;3.97;;
36423;SDS011;22458;45.328;9.514;2022-10-31T02:09:30;4.85;;;4.35;;
36423;SDS011;22458;45.328;9.514;2022-10-31T02:12:00;4.00;;;3.63;;
36423;SDS011;22458;45.328;9.514;2022-10-31T02:14:28;4.13;;;3.53;;
36423;SDS011;22458;45.328;9.514;2022-10-31T02:16:55;3.92;;;3.63;;
36423;SDS011;22458;45.328;9.514;2022-10-31T02:19:26;3.95;;;3.55;;
36423;SDS011;22458;45.328;9.514;2022-10-31T02:24:48;4.00;;;3.60;;
36423;SDS011;22458;45.328;9.514;2022-10-31T02:27:32;3.60;;;3.30;;
36423;SDS011;22458;45.328;9.514;2022-10-31T02:30:24;4.70;;;4.30;;
36423;SDS011;22458;45.328;9.514;2022-10-31T02:33:10;5.20;;;4.25;;
36423;SDS011;22458;45.328;9.514;2022-10-31T02:52:21;6.75;;;4.95;;
36423;SDS011;22458;45.328;9.514;2022-10-31T02:54:51;6.07;;;4.95;;
36423;SDS011;22458;45.328;9.514;2022-10-31T02:57:23;4.20;;;3.78;;
36423;SDS011;22458;45.328;9.514;2022-10-31T03:00:05;3.97;;;3.60;;
36423;SDS011;22458;45.328;9.514;2022-10-31T03:02:45;4.55;;;4.10;;
36423;SDS011;22458;45.328;9.514;2022-10-31T03:05:14;5.27;;;4.23;;
36423;SDS011;22458;45.328;9.514;2022-10-31T03:13:22;4.57;;;3.92;;
36423;SDS011;22458;45.328;9.514;2022-10-31T03:16:10;3.97;;;3.22;;
36423;SDS011;22458;45.328;9.514;2022-10-31T03:21:36;4.63;;;3.85;;
36423;SDS011;22458;45.328;9.514;2022-10-31T03:24:11;8.48;;;4.50;;
36423;SDS011;22458;45.328;9.514;2022-10-31T03:26:41;6.03;;;4.60;;
36423;SDS011;22458;45.328;9.514;2022-10-31T03:29:13;6.45;;;4.25;;
36423;SDS011;22458;45.328;9.514;2022-10-31T03:31:43;5.35;;;4.85;;
36423;SDS011;22458;45.328;9.514;2022-10-31T03:34:13;6.30;;;5.25;;
36423;SDS011;22458;45.328;9.514;2022-10-31T03:36:40;8.02;;;5.32;;
36423;SDS011;22458;45.328;9.514;2022-10-31T03:39:08;7.60;;;5.90;;
36423;SDS011;22458;45.328;9.514;2022-10-31T03:41:40;5.97;;;5.32;;
36423;SDS011;22458;45.328;9.514;2022-10-31T03:44:10;7.43;;;6.38;;
36423;SDS011;22458;45.328;9.514;2022-10-31T03:46:43;7.55;;;5.18;;
36423;SDS011;22458;45.328;9.514;2022-10-31T03:49:09;6.70;;;5.80;;
36423;SDS011;22458;45.328;9.514;2022-10-31T03:54:06;8.38;;;6.65;;
36423;SDS011;22458;45.328;9.514;2022-10-31T03:59:44;10.05;;;7.03;;
36423;SDS011;22458;45.328;9.514;2022-10-31T04:02:16;13.43;;;9.02;;
36423;SDS011;22458;45.328;9.514;2022-10-31T04:04:46;12.60;;;9.48;;
36423;SDS011;22458;45.328;9.514;2022-10-31T04:07:13;12.93;;;9.55;;
36423;SDS011;22458;45.328;9.514;2022-10-31T04:09:41;9.98;;;8.45;;
36423;SDS011;22458;45.328;9.514;2022-10-31T04:12:11;9.90;;;8.63;;
36423;SDS011;22458;45.328;9.514;2022-10-31T04:15:00;9.50;;;8.18;;
36423;SDS011;22458;45.328;9.514;2022-10-31T04:17:29;11.68;;;9.00;;
36423;SDS011;22458;45.328;9.514;2022-10-31T04:19:59;12.85;;;8.18;;
36423;SDS011;22458;45.328;9.514;2022-10-31T04:22:27;10.02;;;7.93;;
36423;SDS011;22458;45.328;9.514;2022-10-31T04:24:53;11.13;;;8.88;;
36423;SDS011;22458;45.328;9.514;2022-10-31T04:27:18;12.38;;;8.80;;
36423;SDS011;22458;45.328;9.514;2022-10-31T04:29:44;15.70;;;10.35;;
36423;SDS011;22458;45.328;9.514;2022-10-31T04:32:11;13.52;;;10.50;;
36423;SDS011;22458;45.328;9.514;2022-10-31T04:34:38;17.35;;;11.73;;
36423;SDS011;22458;45.328;9.514;2022-10-31T04:37:04;19.90;;;13.60;;
36423;SDS011;22458;45.328;9.514;2022-10-31T04:39:31;19.00;;;13.63;;
36423;SDS011;22458;45.328;9.514;2022-10-31T04:42:28;17.35;;;12.13;;
36423;SDS011;22458;45.328;9.514;2022-10-31T04:44:57;18.10;;;12.70;;
36423;SDS011;22458;45.328;9.514;2022-10-31T04:47:22;15.15;;;11.82;;
36423;SDS011;22458;45.328;9.514;2022-10-31T04:49:48;16.55;;;12.05;;
36423;SDS011;22458;45.328;9.514;2022-10-31T04:52:14;19.88;;;11.70;;
36423;SDS011;22458;45.328;9.514;2022-10-31T04:54:41;21.77;;;11.77;;
36423;SDS011;22458;45.328;9.514;2022-10-31T04:57:27;16.92;;;10.98;;
36423;SDS011;22458;45.328;9.514;2022-10-31T04:59:54;18.05;;;9.88;;
36423;SDS011;22458;45.328;9.514;2022-10-31T05:02:22;13.90;;;10.77;;
36423;SDS011;22458;45.328;9.514;2022-10-31T05:04:53;16.65;;;11.48;;
36423;SDS011;22458;45.328;9.514;2022-10-31T05:07:19;15.50;;;11.50;;
36423;SDS011;22458;45.328;9.514;2022-10-31T05:09:45;14.82;;;9.98;;
36423;SDS011;22458;45.328;9.514;2022-10-31T05:12:12;16.30;;;10.27;;
36423;SDS011;22458;45.328;9.514;2022-10-31T05:14:56;14.00;;;11.40;;
36423;SDS011;22458;45.328;9.514;2022-10-31T05:17:40;13.40;;;10.23;;
36423;SDS011;22458;45.328;9.514;2022-10-31T05:20:26;11.75;;;9.93;;
36423;SDS011;22458;45.328;9.514;2022-10-31T05:23:10;12.93;;;10.02;;
36423;SDS011;22458;45.328;9.514;2022-10-31T05:25:36;15.32;;;10.73;;
36423;SDS011;22458;45.328;9.514;2022-10-31T05:28:03;12.32;;;10.02;;
36423;SDS011;22458;45.328;9.514;2022-10-31T05:30:30;13.25;;;9.18;;
36423;SDS011;22458;45.328;9.514;2022-10-31T05:32:57;16.40;;;10.55;;
36423;SDS011;22458;45.328;9.514;2022-10-31T05:35:44;9.88;;;8.68;;
36423;SDS011;22458;45.328;9.514;2022-10-31T05:38:29;9.50;;;7.82;;
36423;SDS011;22458;45.328;9.514;2022-10-31T05:41:00;9.48;;;7.93;;
36423;SDS011;22458;45.328;9.514;2022-10-31T05:43:28;9.90;;;8.07;;
36423;SDS011;22458;45.328;9.514;2022-10-31T05:45:54;10.88;;;7.78;;
36423;SDS011;22458;45.328;9.514;2022-10-31T05:48:39;8.43;;;7.63;;
36423;SDS011;22458;45.328;9.514;2022-10-31T05:51:24;8.27;;;7.20;;
36423;SDS011;22458;45.328;9.514;2022-10-31T05:53:49;8.63;;;7.78;;
36423;SDS011;22458;45.328;9.514;2022-10-31T05:56:16;6.75;;;6.05;;
36423;SDS011;22458;45.328;9.514;2022-10-31T05:58:42;8.88;;;7.75;;
36423;SDS011;22458;45.328;9.514;2022-10-31T06:01:07;15.32;;;9.27;;
36423;SDS011;22458;45.328;9.514;2022-10-31T06:03:33;12.93;;;9.35;;
36423;SDS011;22458;45.328;9.514;2022-10-31T06:06:01;14.27;;;9.10;;
36423;SDS011;22458;45.328;9.514;2022-10-31T06:08:34;10.82;;;9.52;;
36423;SDS011;22458;45.328;9.514;2022-10-31T06:11:04;12.13;;;9.07;;
36423;SDS011;22458;45.328;9.514;2022-10-31T06:13:48;13.23;;;9.75;;
36423;SDS011;22458;45.328;9.514;2022-10-31T06:16:20;11.18;;;9.13;;
36423;SDS011;22458;45.328;9.514;2022-10-31T06:18:46;11.48;;;8.68;;
36423;SDS011;22458;45.328;9.514;2022-10-31T06:21:12;14.43;;;9.02;;
36423;SDS011;22458;45.328;9.514;2022-10-31T06:23:38;12.25;;;9.50;;
36423;SDS011;22458;45.328;9.514;2022-10-31T06:26:27;11.25;;;9.07;;
36423;SDS011;22458;45.328;9.514;2022-10-31T06:28:52;11.52;;;9.10;;
36423;SDS011;22458;45.328;9.514;2022-10-31T06:31:40;11.27;;;8.40;;
36423;SDS011;22458;45.328;9.514;2022-10-31T06:34:06;10.15;;;8.63;;
36423;SDS011;22458;45.328;9.514;2022-10-31T06:36:31;11.13;;;8.88;;
36423;SDS011;22458;45.328;9.514;2022-10-31T06:38:57;14.43;;;9.93;;
36423;SDS011;22458;45.328;9.514;2022-10-31T06:41:23;11.77;;;10.57;;
36423;SDS011;22458;45.328;9.514;2022-10-31T06:43:51;12.90;;;9.43;;
36423;SDS011;22458;45.328;9.514;2022-10-31T06:46:39;11.38;;;9.98;;
36423;SDS011;22458;45.328;9.514;2022-10-31T06:49:25;12.02;;;9.40;;
36423;SDS011;22458;45.328;9.514;2022-10-31T06:51:58;12.85;;;10.20;;
36423;SDS011;22458;45.328;9.514;2022-10-31T06:54:23;13.70;;;9.98;;
36423;SDS011;22458;45.328;9.514;2022-10-31T06:56:49;13.50;;;9.77;;
36423;SDS011;22458;45.328;9.514;2022-10-31T06:59:15;11.70;;;9.27;;
36423;SDS011;22458;45.328;9.514;2022-10-31T07:02:10;10.38;;;8.35;;
36423;SDS011;22458;45.328;9.514;2022-10-31T07:04:38;11.13;;;8.65;;
36423;SDS011;22458;45.328;9.514;2022-10-31T07:07:04;11.40;;;8.60;;
36423;SDS011;22458;45.328;9.514;2022-10-31T07:09:30;10.00;;;8.95;;
36423;SDS011;22458;45.328;9.514;2022-10-31T07:12:00;9.90;;;8.45;;
36423;SDS011;22458;45.328;9.514;2022-10-31T07:14:28;10.25;;;8.23;;
36423;SDS011;22458;45.328;9.514;2022-10-31T07:16:53;9.95;;;8.32;;
36423;SDS011;22458;45.328;9.514;2022-10-31T07:19:25;9.43;;;8.40;;
36423;SDS011;22458;45.328;9.514;2022-10-31T07:21:51;8.85;;;8.05;;
36423;SDS011;22458;45.328;9.514;2022-10-31T07:24:16;8.05;;;7.25;;
36423;SDS011;22458;45.328;9.514;2022-10-31T07:26:42;9.68;;;8.68;;
36423;SDS011;22458;45.328;9.514;2022-10-31T07:29:09;10.02;;;8.48;;
36423;SDS011;22458;45.328;9.514;2022-10-31T07:31:35;9.25;;;8.30;;
36423;SDS011;22458;45.328;9.514;2022-10-31T07:34:11;9.20;;;8.35;;
36423;SDS011;22458;45.328;9.514;2022-10-31T07:37:12;10.73;;;7.68;;
36423;SDS011;22458;45.328;9.514;2022-10-31T07:39:38;9.10;;;8.20;;
36423;SDS011;22458;45.328;9.514;2022-10-31T07:42:05;8.55;;;7.68;;
36423;SDS011;22458;45.328;9.514;2022-10-31T07:44:32;9.35;;;8.25;;
36423;SDS011;22458;45.328;9.514;2022-10-31T07:47:16;10.63;;;8.13;;
36423;SDS011;22458;45.328;9.514;2022-10-31T07:50:02;10.23;;;7.72;;
36423;SDS011;22458;45.328;9.514;2022-10-31T07:55:49;9.32;;;8.27;;
36423;SDS011;22458;45.328;9.514;2022-10-31T07:58:17;9.55;;;8.50;;
36423;SDS011;22458;45.328;9.514;2022-10-31T08:00:45;10.68;;;8.68;;
36423;SDS011;22458;45.328;9.514;2022-10-31T08:03:17;9.98;;;7.68;;
36423;SDS011;22458;45.328;9.514;2022-10-31T08:05:56;11.93;;;8.30;;
36423;SDS011;22458;45.328;9.514;2022-10-31T08:08:40;11.48;;;8.25;;
36423;SDS011;22458;45.328;9.514;2022-10-31T08:11:07;11.82;;;8.13;;
36423;SDS011;22458;45.328;9.514;2022-10-31T08:13:33;11.95;;;8.32;;
36423;SDS011;22458;45.328;9.514;2022-10-31T08:15:59;9.60;;;8.60;;
36423;SDS011;22458;45.328;9.514;2022-10-31T08:18:31;13.02;;;8.40;;
36423;SDS011;22458;45.328;9.514;2022-10-31T08:20:57;13.48;;;8.70;;
36423;SDS011;22458;45.328;9.514;2022-10-31T08:23:23;10.00;;;8.27;;
36423;SDS011;22458;45.328;9.514;2022-10-31T08:25:52;12.30;;;8.52;;
36423;SDS011;22458;45.328;9.514;2022-10-31T08:28:17;10.73;;;8.18;;
36423;SDS011;22458;45.328;9.514;2022-10-31T08:30:46;11.88;;;8.70;;
36423;SDS011;22458;45.328;9.514;2022-10-31T08:33:44;12.18;;;8.35;;
36423;SDS011;22458;45.328;9.514;2022-10-31T08:36:28;12.75;;;7.97;;
36423;SDS011;22458;45.328;9.514;2022-10-31T08:39:09;9.95;;;7.57;;
36423;SDS011;22458;45.328;9.514;2022-10-31T08:41:34;11.35;;;8.48;;
36423;SDS011;22458;45.328;9.514;2022-10-31T08:44:00;9.43;;;7.47;;
36423;SDS011;22458;45.328;9.514;2022-10-31T08:46:26;11.20;;;7.85;;
36423;SDS011;22458;45.328;9.514;2022-10-31T08:48:52;8.85;;;7.47;;
36423;SDS011;22458;45.328;9.514;2022-10-31T08:51:19;13.55;;;7.90;;
36423;SDS011;22458;45.328;9.514;2022-10-31T08:53:47;7.95;;;7.03;;
36423;SDS011;22458;45.328;9.514;2022-10-31T08:56:31;11.02;;;7.53;;
36423;SDS011;22458;45.328;9.514;2022-10-31T08:58:58;11.18;;;7.28;;
36423;SDS011;22458;45.328;9.514;2022-10-31T09:01:52;10.15;;;7.90;;
36423;SDS011;22458;45.328;9.514;2022-10-31T09:04:18;10.57;;;6.85;;
36423;SDS011;22458;45.328;9.514;2022-10-31T09:06:44;12.45;;;7.40;;
36423;SDS011;22458;45.328;9.514;2022-10-31T09:09:10;10.68;;;7.22;;
36423;SDS011;22458;45.328;9.514;2022-10-31T09:11:36;13.55;;;6.97;;
36423;SDS011;22458;45.328;9.514;2022-10-31T09:14:07;11.43;;;7.45;;
36423;SDS011;22458;45.328;9.514;2022-10-31T09:17:08;15.20;;;6.82;;
36423;SDS011;22458;45.328;9.514;2022-10-31T09:19:51;7.93;;;6.05;;
36423;SDS011;22458;45.328;9.514;2022-10-31T09:22:16;9.93;;;6.70;;
36423;SDS011;22458;45.328;9.514;2022-10-31T09:24:42;8.80;;;6.65;;
36423;SDS011;22458;45.328;9.514;2022-10-31T09:27:08;7.03;;;5.80;;
36423;SDS011;22458;45.328;9.514;2022-10-31T09:29:37;8.73;;;6.63;;
36423;SDS011;22458;45.328;9.514;2022-10-31T09:32:05;9.90;;;6.28;;
36423;SDS011;22458;45.328;9.514;2022-10-31T09:34:37;11.80;;;6.53;;
36423;SDS011;22458;45.328;9.514;2022-10-31T09:37:11;10.30;;;6.70;;
36423;SDS011;22458;45.328;9.514;2022-10-31T09:39:38;11.77;;;6.78;;
36423;SDS011;22458;45.328;9.514;2022-10-31T09:47:40;8.35;;;6.43;;
36423;SDS011;22458;45.328;9.514;2022-10-31T09:50:41;11.30;;;6.22;;
36423;SDS011;22458;45.328;9.514;2022-10-31T09:53:48;10.70;;;6.97;;
36423;SDS011;22458;45.328;9.514;2022-10-31T09:56:20;9.85;;;6.53;;
36423;SDS011;22458;45.328;9.514;2022-10-31T09:58:50;10.57;;;6.07;;
36423;SDS011;22458;45.328;9.514;2022-10-31T10:19:33;6.38;;;5.00;;
36423;SDS011;22458;45.328;9.514;2022-10-31T10:22:14;12.45;;;6.00;;
36423;SDS011;22458;45.328;9.514;2022-10-31T10:25:02;9.32;;;5.00;;
36423;SDS011;22458;45.328;9.514;2022-10-31T10:30:20;8.13;;;4.78;;
36423;SDS011;22458;45.328;9.514;2022-10-31T10:32:57;9.63;;;5.95;;
36423;SDS011;22458;45.328;9.514;2022-10-31T10:35:45;7.32;;;5.47;;
36423;SDS011;22458;45.328;9.514;2022-10-31T10:40:53;11.65;;;5.07;;
36423;SDS011;22458;45.328;9.514;2022-10-31T10:43:21;10.40;;;5.20;;
36423;SDS011;22458;45.328;9.514;2022-10-31T10:51:58;10.95;;;5.32;;
36423;SDS011;22458;45.328;9.514;2022-10-31T10:59:38;10.18;;;5.00;;
36423;SDS011;22458;45.328;9.514;2022-10-31T11:02:13;8.60;;;5.40;;
36423;SDS011;22458;45.328;9.514;2022-10-31T11:04:47;8.48;;;4.53;;
36423;SDS011;22458;45.328;9.514;2022-10-31T11:07:17;6.47;;;4.95;;
36423;SDS011;22458;45.328;9.514;2022-10-31T11:09:43;9.05;;;5.10;;
36423;SDS011;22458;45.328;9.514;2022-10-31T11:12:09;7.10;;;4.70;;
36423;SDS011;22458;45.328;9.514;2022-10-31T11:14:48;8.70;;;4.47;;
36423;SDS011;22458;45.328;9.514;2022-10-31T11:17:30;7.93;;;4.13;;
36423;SDS011;22458;45.328;9.514;2022-10-31T11:20:20;8.18;;;4.82;;
36423;SDS011;22458;45.328;9.514;2022-10-31T11:22:55;8.05;;;3.97;;
36423;SDS011;22458;45.328;9.514;2022-10-31T11:25:27;10.18;;;4.40;;
36423;SDS011;22458;45.328;9.514;2022-10-31T11:28:03;8.60;;;3.95;;
36423;SDS011;22458;45.328;9.514;2022-10-31T11:30:30;7.07;;;4.13;;
36423;SDS011;22458;45.328;9.514;2022-10-31T11:33:11;6.88;;;4.40;;
36423;SDS011;22458;45.328;9.514;2022-10-31T11:35:44;9.88;;;4.50;;
36423;SDS011;22458;45.328;9.514;2022-10-31T11:38:12;10.50;;;4.47;;
36423;SDS011;22458;45.328;9.514;2022-10-31T11:40:53;8.95;;;4.45;;
36423;SDS011;22458;45.328;9.514;2022-10-31T11:43:22;10.18;;;3.70;;
36423;SDS011;22458;45.328;9.514;2022-10-31T11:45:48;6.93;;;4.10;;
36423;SDS011;22458;45.328;9.514;2022-10-31T11:48:18;10.07;;;3.92;;
36423;SDS011;22458;45.328;9.514;2022-10-31T11:50:54;9.13;;;3.65;;
36423;SDS011;22458;45.328;9.514;2022-10-31T11:53:28;8.40;;;3.78;;
36423;SDS011;22458;45.328;9.514;2022-10-31T11:56:15;9.23;;;3.75;;
36423;SDS011;22458;45.328;9.514;2022-10-31T11:58:41;6.55;;;4.20;;
36423;SDS011;22458;45.328;9.514;2022-10-31T12:01:27;11.18;;;4.85;;
36423;SDS011;22458;45.328;9.514;2022-10-31T12:03:56;10.43;;;4.03;;
36423;SDS011;22458;45.328;9.514;2022-10-31T12:06:38;10.45;;;4.45;;
36423;SDS011;22458;45.328;9.514;2022-10-31T12:17:45;7.57;;;4.35;;
36423;SDS011;22458;45.328;9.514;2022-10-31T12:26:16;6.95;;;3.95;;
36423;SDS011;22458;45.328;9.514;2022-10-31T12:36:29;11.77;;;4.78;;
36423;SDS011;22458;45.328;9.514;2022-10-31T12:41:49;10.77;;;5.57;;
36423;SDS011;22458;45.328;9.514;2022-10-31T12:47:07;12.38;;;5.38;;
36423;SDS011;22458;45.328;9.514;2022-10-31T12:49:59;11.20;;;5.43;;
36423;SDS011;22458;45.328;9.514;2022-10-31T13:02:26;8.07;;;5.28;;
36423;SDS011;22458;45.328;9.514;2022-10-31T13:08:21;7.00;;;4.60;;
36423;SDS011;22458;45.328;9.514;2022-10-31T13:16:00;8.35;;;4.70;;
36423;SDS011;22458;45.328;9.514;2022-10-31T13:18:38;10.98;;;4.97;;
36423;SDS011;22458;45.328;9.514;2022-10-31T13:24:16;8.93;;;4.93;;
36423;SDS011;22458;45.328;9.514;2022-10-31T13:26:50;10.20;;;4.50;;
36423;SDS011;22458;45.328;9.514;2022-10-31T13:31:56;9.60;;;4.78;;
36423;SDS011;22458;45.328;9.514;2022-10-31T13:34:23;6.75;;;4.25;;
36423;SDS011;22458;45.328;9.514;2022-10-31T13:42:22;10.93;;;4.55;;
36423;SDS011;22458;45.328;9.514;2022-10-31T13:45:16;7.60;;;3.97;;
36423;SDS011;22458;45.328;9.514;2022-10-31T13:48:00;7.97;;;4.18;;
36423;SDS011;22458;45.328;9.514;2022-10-31T13:50:30;8.95;;;3.83;;
36423;SDS011;22458;45.328;9.514;2022-10-31T13:58:33;8.50;;;4.68;;
36423;SDS011;22458;45.328;9.514;2022-10-31T14:03:35;12.77;;;4.50;;
36423;SDS011;22458;45.328;9.514;2022-10-31T14:06:06;8.50;;;3.28;;
36423;SDS011;22458;45.328;9.514;2022-10-31T14:08:34;8.80;;;4.18;;
36423;SDS011;22458;45.328;9.514;2022-10-31T14:11:02;10.02;;;3.60;;
36423;SDS011;22458;45.328;9.514;2022-10-31T14:13:32;7.20;;;3.67;;
36423;SDS011;22458;45.328;9.514;2022-10-31T14:16:20;10.15;;;3.70;;
36423;SDS011;22458;45.328;9.514;2022-10-31T14:18:59;9.13;;;3.95;;
36423;SDS011;22458;45.328;9.514;2022-10-31T14:21:30;6.88;;;3.67;;
36423;SDS011;22458;45.328;9.514;2022-10-31T14:24:02;5.43;;;3.45;;
36423;SDS011;22458;45.328;9.514;2022-10-31T14:26:51;8.25;;;3.90;;
36423;SDS011;22458;45.328;9.514;2022-10-31T14:37:21;7.77;;;3.47;;
36423;SDS011;22458;45.328;9.514;2022-10-31T14:40:19;6.28;;;3.08;;
36423;SDS011;22458;45.328;9.514;2022-10-31T14:46:01;7.25;;;3.88;;
36423;SDS011;22458;45.328;9.514;2022-10-31T14:51:19;7.07;;;3.60;;
36423;SDS011;22458;45.328;9.514;2022-10-31T14:53:51;11.48;;;3.65;;
36423;SDS011;22458;45.328;9.514;2022-10-31T14:56:26;9.25;;;3.60;;
36423;SDS011;22458;45.328;9.514;2022-10-31T14:58:55;6.22;;;3.33;;
36423;SDS011;22458;45.328;9.514;2022-10-31T15:01:24;7.47;;;3.65;;
36423;SDS011;22458;45.328;9.514;2022-10-31T15:03:58;6.45;;;3.55;;
36423;SDS011;22458;45.328;9.514;2022-10-31T15:06:30;9.88;;;3.08;;
36423;SDS011;22458;45.328;9.514;2022-10-31T15:09:26;6.20;;;3.42;;
36423;SDS011;22458;45.328;9.514;2022-10-31T15:11:53;6.80;;;2.65;;
36423;SDS011;22458;45.328;9.514;2022-10-31T15:14:23;5.10;;;3.10;;
36423;SDS011;22458;45.328;9.514;2022-10-31T15:16:56;6.38;;;3.50;;
36423;SDS011;22458;45.328;9.514;2022-10-31T15:19:24;7.70;;;3.65;;
36423;SDS011;22458;45.328;9.514;2022-10-31T15:21:52;10.82;;;3.53;;
36423;SDS011;22458;45.328;9.514;2022-10-31T15:24:19;6.50;;;3.28;;
36423;SDS011;22458;45.328;9.514;2022-10-31T15:26:49;8.40;;;3.40;;
36423;SDS011;22458;45.328;9.514;2022-10-31T15:29:21;6.57;;;3.70;;
36423;SDS011;22458;45.328;9.514;2022-10-31T15:31:55;9.27;;;3.20;;
36423;SDS011;22458;45.328;9.514;2022-10-31T15:36:54;7.65;;;3.65;;
36423;SDS011;22458;45.328;9.514;2022-10-31T15:39:20;11.68;;;3.28;;
36423;SDS011;22458;45.328;9.514;2022-10-31T15:41:52;8.38;;;3.75;;
36423;SDS011;22458;45.328;9.514;2022-10-31T15:44:33;8.93;;;4.47;;
36423;SDS011;22458;45.328;9.514;2022-10-31T15:47:06;10.77;;;3.90;;
36423;SDS011;22458;45.328;9.514;2022-10-31T15:49:47;6.53;;;3.83;;
36423;SDS011;22458;45.328;9.514;2022-10-31T15:57:48;12.32;;;4.38;;
36423;SDS011;22458;45.328;9.514;2022-10-31T16:03:07;9.00;;;4.40;;
36423;SDS011;22458;45.328;9.514;2022-10-31T16:05:43;8.25;;;5.10;;
36423;SDS011;22458;45.328;9.514;2022-10-31T16:10:49;7.07;;;4.93;;
36423;SDS011;22458;45.328;9.514;2022-10-31T16:13:15;6.35;;;4.03;;
36423;SDS011;22458;45.328;9.514;2022-10-31T16:16:23;15.27;;;4.65;;
36423;SDS011;22458;45.328;9.514;2022-10-31T16:18:37;11.88;;;3.90;;
36423;SDS011;22458;45.328;9.514;2022-10-31T16:21:04;13.70;;;4.30;;
36423;SDS011;22458;45.328;9.514;2022-10-31T16:23:31;9.88;;;4.65;;
36423;SDS011;22458;45.328;9.514;2022-10-31T16:25:57;11.32;;;4.72;;
36423;SDS011;22458;45.328;9.514;2022-10-31T16:28:26;12.20;;;5.00;;
36423;SDS011;22458;45.328;9.514;2022-10-31T16:30:55;11.25;;;4.47;;
36423;SDS011;22458;45.328;9.514;2022-10-31T16:36:01;12.35;;;5.10;;
36423;SDS011;22458;45.328;9.514;2022-10-31T16:38:53;12.23;;;5.93;;
36423;SDS011;22458;45.328;9.514;2022-10-31T16:41:19;9.25;;;5.38;;
36423;SDS011;22458;45.328;9.514;2022-10-31T16:43:45;14.98;;;5.13;;
36423;SDS011;22458;45.328;9.514;2022-10-31T16:46:12;11.88;;;5.00;;
36423;SDS011;22458;45.328;9.514;2022-10-31T16:48:40;11.27;;;5.33;;
36423;SDS011;22458;45.328;9.514;2022-10-31T16:51:09;10.90;;;5.25;;
36423;SDS011;22458;45.328;9.514;2022-10-31T16:53:35;15.77;;;6.50;;
36423;SDS011;22458;45.328;9.514;2022-10-31T16:56:02;9.13;;;4.88;;
36423;SDS011;22458;45.328;9.514;2022-10-31T16:58:29;17.75;;;5.00;;
36423;SDS011;22458;45.328;9.514;2022-10-31T17:00:58;12.57;;;5.10;;
36423;SDS011;22458;45.328;9.514;2022-10-31T17:03:25;8.23;;;4.50;;
36423;SDS011;22458;45.328;9.514;2022-10-31T17:05:51;12.50;;;5.03;;
36423;SDS011;22458;45.328;9.514;2022-10-31T17:08:17;14.98;;;6.00;;
36423;SDS011;22458;45.328;9.514;2022-10-31T17:10:43;9.93;;;4.90;;
36423;SDS011;22458;45.328;9.514;2022-10-31T17:13:12;11.57;;;5.55;;
36423;SDS011;22458;45.328;9.514;2022-10-31T17:15:42;11.00;;;5.53;;
36423;SDS011;22458;45.328;9.514;2022-10-31T17:18:14;9.88;;;5.70;;
36423;SDS011;22458;45.328;9.514;2022-10-31T17:20:41;13.75;;;5.47;;
36423;SDS011;22458;45.328;9.514;2022-10-31T17:23:11;14.55;;;5.18;;
36423;SDS011;22458;45.328;9.514;2022-10-31T17:25:38;10.75;;;5.90;;
36423;SDS011;22458;45.328;9.514;2022-10-31T17:28:04;20.42;;;6.47;;
36423;SDS011;22458;45.328;9.514;2022-10-31T17:30:31;11.98;;;5.38;;
36423;SDS011;22458;45.328;9.514;2022-10-31T17:32:57;13.27;;;5.72;;
36423;SDS011;22458;45.328;9.514;2022-10-31T17:35:23;8.93;;;5.72;;
36423;SDS011;22458;45.328;9.514;2022-10-31T17:37:49;16.30;;;5.70;;
36423;SDS011;22458;45.328;9.514;2022-10-31T17:40:16;19.23;;;6.10;;
36423;SDS011;22458;45.328;9.514;2022-10-31T17:42:50;9.98;;;6.25;;
36423;SDS011;22458;45.328;9.514;2022-10-31T17:45:17;12.68;;;6.22;;
36423;SDS011;22458;45.328;9.514;2022-10-31T17:47:47;12.55;;;5.93;;
36423;SDS011;22458;45.328;9.514;2022-10-31T17:50:15;13.80;;;6.53;;
36423;SDS011;22458;45.328;9.514;2022-10-31T17:52:42;15.95;;;6.13;;
36423;SDS011;22458;45.328;9.514;2022-10-31T17:55:08;8.07;;;5.38;;
36423;SDS011;22458;45.328;9.514;2022-10-31T17:57:34;13.18;;;6.30;;
36423;SDS011;22458;45.328;9.514;2022-10-31T18:00:00;11.43;;;6.45;;
36423;SDS011;22458;45.328;9.514;2022-10-31T18:02:30;16.98;;;6.80;;
36423;SDS011;22458;45.328;9.514;2022-10-31T18:04:56;10.43;;;5.63;;